Time;durP1;ratioP1;P1;durP2;ratioP2;P2;SDS_P1;SDS_P2;PMS_P1;PMS_P2;Temp;Humidity;BMP_temperature;BMP_pressure;BME280_temperature;BME280_humidity;BME280_pressure;Samples;Min_cycle;Max_cycle;Signal;HPM_P1;HPM_P2
2022/11/06 00:00:23;;;;;;;;;;;;;;;;;;5060430;28;20309;-66
2022/11/06 00:02:48;;;;;;;;;;;;;;;;;;5061583;28;19924;-66
2022/11/06 00:07:58;;;;;;;;;;;;;;;;;;5059018;28;19985;-66
2022/11/06 00:10:23;;;;;;;;;;;;;;;;;;5060808;28;20444;-58
2022/11/06 00:12:49;;;;;;;;;;;;;;;;;;5056848;28;19963;-58
2022/11/06 00:15:14;;;;;;;;;;;;;;;;;;5056492;28;19981;-58
2022/11/06 00:17:40;;;;;;;;;;;;;;;;;;5058489;28;20386;-56
2022/11/06 00:20:06;;;;;;;;;;;;;;;;;;5059667;28;19933;-56
2022/11/06 00:22:32;;;;;;;;;;;;;;;;;;5053131;28;21452;-56
2022/11/06 00:24:57;;;;;;;;;;;;;;;;;;5049338;28;19936;-57
2022/11/06 00:27:22;;;;;;;;;;;;;;;;;;5053205;28;19928;-57
2022/11/06 00:29:47;;;;;;;;;;;;;;;;;;5048129;28;20114;-57
2022/11/06 00:32:13;;;;;;;;;;;;;;;;;;5049370;28;19932;-58
2022/11/06 00:34:38;;;;;;;;;;;;;;;;;;5053750;28;19928;-58
2022/11/06 00:37:04;;;;;;;;;;;;;;;;;;5056848;28;19982;-58
2022/11/06 00:39:29;;;;;;;;;;;;;;;;;;5057662;28;19924;-58
2022/11/06 00:41:55;;;;;;;;;;;;;;;;;;5058884;28;20349;-58
2022/11/06 00:44:20;;;;;;;;;;;;;;;;;;5053768;28;19924;-57
2022/11/06 00:46:45;;;;;;;;;;;;;;;;;;5049288;28;19963;-56
2022/11/06 00:49:11;;;;;;;;;;;;;;;;;;5049593;28;20040;-58
2022/11/06 00:51:39;;;;;;;;;;;;;;;;;;5052862;28;20341;-57
2022/11/06 00:54:06;;;;;;;;;;;;;;;;;;5058812;28;19928;-59
2022/11/06 00:56:31;;;;;;;;;;;;;;;;;;5052081;28;19932;-57
2022/11/06 00:59:00;;;;;;;;;;;;;;;;;;5053940;28;19929;-56
2022/11/06 01:01:27;;;;;;;;;;;;;;;;;;5050054;28;19933;-57
2022/11/06 01:04:00;;;;;;;;;;;;;;;;;;5050216;28;19928;-59
2022/11/06 01:06:27;;;;;;;;;;;;;;;;;;5053860;28;19931;-59
2022/11/06 01:08:53;;;;;;;;;;;;;;;;;;5058854;28;20024;-57
2022/11/06 01:11:19;;;;;;;;;;;;;;;;;;5060182;28;20023;-56
2022/11/06 01:13:47;;;;;;;;;;;;;;;;;;5053060;28;20019;-58
2022/11/06 01:16:13;;;;;;;;;;;;;;;;;;5051249;28;20217;-57
2022/11/06 01:18:39;;;;;;;;;;;;;;;;;;5053171;28;19971;-57
2022/11/06 01:21:05;;;;;;;;;;;;;;;;;;5050450;28;19967;-54
2022/11/06 01:23:31;;;;;;;;;;;;;;;;;;5049643;28;19932;-57
2022/11/06 01:25:57;;;;;;;;;;;;;;;;;;5052000;28;19925;-57
2022/11/06 01:28:23;;;;;;;;;;;;;;;;;;5052040;28;19924;-57
2022/11/06 01:30:48;;;;;;;;;;;;;;;;;;5050832;28;19924;-57
2022/11/06 01:33:13;;;;;;;;;;;;;;;;;;5051364;28;19929;-57
2022/11/06 01:35:46;;;;;;;;;;;;;;;;;;5054702;28;20388;-58
2022/11/06 01:38:12;;;;;;;;;;;;;;;;;;5056883;28;19968;-56
2022/11/06 01:40:41;;;;;;;;;;;;;;;;;;5060083;28;19995;-55
2022/11/06 01:43:17;;;;;;;;;;;;;;;;;;5053577;28;19943;-54
2022/11/06 01:45:44;;;;;;;;;;;;;;;;;;5056475;28;19920;-55
2022/11/06 01:48:10;;;;;;;;;;;;;;;;;;5061136;28;19932;-58
2022/11/06 01:50:35;;;;;;;;;;;;;;;;;;5057307;28;20314;-58
2022/11/06 01:53:01;;;;;;;;;;;;;;;;;;5059537;28;19933;-57
2022/11/06 01:55:29;;;;;;;;;;;;;;;;;;5056031;28;19982;-56
2022/11/06 01:57:56;;;;;;;;;;;;;;;;;;5051319;28;20522;-55
2022/11/06 02:00:21;;;;;;;;;;;;;;;;;;5054883;28;19931;-58
2022/11/06 02:02:47;;;;;;;;;;;;;;;;;;5052568;28;19928;-58
2022/11/06 02:05:12;;;;;;;;;;;;;;;;;;5053913;28;19967;-58
2022/11/06 02:07:38;;;;;;;;;;;;;;;;;;5054885;28;19990;-55
2022/11/06 02:10:04;;;;;;;;;;;;;;;;;;5048617;28;19959;-53
2022/11/06 02:12:32;;;;;;;;;;;;;;;;;;5056838;28;19920;-54
2022/11/06 02:15:13;;;;;;;;;;;;;;;;;;5054127;28;20453;-56
2022/11/06 02:17:38;;;;;;;;;;;;;;;;;;5051945;28;19986;-56
2022/11/06 02:20:10;;;;;;;;;;;;;;;;;;5059004;28;19929;-54
2022/11/06 02:22:53;;;;;;;;;;;;;;;;;;5051169;28;20349;-55
2022/11/06 02:25:37;;;;;;;;;;;;;;;;;;5051949;28;19936;-56
2022/11/06 02:28:07;;;;;;;;;;;;;;;;;;5050212;28;20439;-56
2022/11/06 02:30:35;;;;;;;;;;;;;;;;;;5055461;28;19921;-55
2022/11/06 02:33:05;;;;;;;;;;;;;;;;;;5051554;28;19933;-55
2022/11/06 02:35:42;;;;;;;;;;;;;;;;;;5057866;28;19924;-54
2022/11/06 02:38:09;;;;;;;;;;;;;;;;;;5053372;28;19933;-55
2022/11/06 02:40:36;;;;;;;;;;;;;;;;;;5060902;28;19924;-56
2022/11/06 02:43:04;;;;;;;;;;;;;;;;;;5048773;28;20050;-51
2022/11/06 02:45:30;;;;;;;;;;;;;;;;;;5050239;28;19928;-51
2022/11/06 02:47:57;;;;;;;;;;;;;;;;;;5059365;28;20019;-54
2022/11/06 02:50:25;;;;;;;;;;;;;;;;;;5053849;28;19932;-52
2022/11/06 02:52:56;;;;;;;;;;;;;;;;;;5049491;28;19929;-52
2022/11/06 02:55:27;;;;;;;;;;;;;;;;;;5053830;28;20408;-56
2022/11/06 02:57:56;;;;;;;;;;;;;;;;;;5057501;28;20442;-54
2022/11/06 03:00:22;;;;;;;;;;;;;;;;;;5050702;28;19970;-56
2022/11/06 03:02:54;;;;;;;;;;;;;;;;;;5054210;28;19933;-55
2022/11/06 03:05:22;;;;;;;;;;;;;;;;;;5054174;28;19975;-56
2022/11/06 03:08:06;;;;;;;;;;;;;;;;;;5055470;28;19936;-55
2022/11/06 03:10:36;;;;;;;;;;;;;;;;;;5051675;28;20332;-54
2022/11/06 03:13:12;;;;;;;;;;;;;;;;;;5049995;28;20342;-56
2022/11/06 03:15:40;;;;;;;;;;;;;;;;;;5057511;28;19928;-53
2022/11/06 03:18:12;;;;;;;;;;;;;;;;;;5056345;28;19979;-57
2022/11/06 03:20:43;;;;;;;;;;;;;;;;;;5060111;28;19928;-55
2022/11/06 03:23:13;;;;;;;;;;;;;;;;;;5053371;28;20478;-52
2022/11/06 03:25:46;;;;;;;;;;;;;;;;;;5057103;28;20327;-56
2022/11/06 03:28:15;;;;;;;;;;;;;;;;;;5055068;28;19928;-55
2022/11/06 03:30:44;;;;;;;;;;;;;;;;;;5053960;28;19929;-56
2022/11/06 03:33:15;;;;;;;;;;;;;;;;;;5059507;28;19932;-57
2022/11/06 03:35:50;;;;;;;;;;;;;;;;;;5061299;28;19925;-54
2022/11/06 03:38:21;;;;;;;;;;;;;;;;;;5064138;28;19924;-55
2022/11/06 03:40:50;;;;;;;;;;;;;;;;;;5055644;28;20363;-53
2022/11/06 03:43:17;;;;;;;;;;;;;;;;;;5053834;28;20585;-56
2022/11/06 03:45:43;;;;;;;;;;;;;;;;;;5060336;28;20375;-55
2022/11/06 03:48:18;;;;;;;;;;;;;;;;;;5057945;28;19925;-56
2022/11/06 03:50:53;;;;;;;;;;;;;;;;;;5057187;28;19998;-51
2022/11/06 03:53:30;;;;;;;;;;;;;;;;;;5062880;28;19932;-55
2022/11/06 03:55:58;;;;;;;;;;;;;;;;;;5057714;28;19925;-57
2022/11/06 03:58:26;;;;;;;;;;;;;;;;;;5062992;28;20015;-54
2022/11/06 04:00:53;;;;;;;;;;;;;;;;;;5058835;28;19928;-53
2022/11/06 04:03:24;;;;;;;;;;;;;;;;;;5057529;28;20430;-54
2022/11/06 04:14:03;;;;;;;;;;;;;;;;;;5064900;28;19952;-70
2022/11/06 04:16:38;;;;;;;;;;;;;;;;;;5070914;28;20440;-70
2022/11/06 04:19:30;;;;;;;;;;;;;;;;;;5078829;28;20185;-71
2022/11/06 04:22:05;;;;;;;;;;;;;;;;;;5074987;28;19927;-70
2022/11/06 04:27:37;;;;;;;;;;;;;;;;;;5079708;28;19931;-70
2022/11/06 04:30:07;;;;;;;;;;;;;;;;;;5085489;28;19931;-71
2022/11/06 04:32:38;;;;;;;;;;;;;;;;;;5081300;28;20011;-70
2022/11/06 04:35:18;;;;;;;;;;;;;;;;;;5080489;28;19938;-70
2022/11/06 04:37:43;;;;;;;;;;;;;;;;;;5077899;28;19924;-70
2022/11/06 04:40:13;;;;;;;;;;;;;;;;;;5081038;28;19928;-70
2022/11/06 04:42:41;;;;;;;;;;;;;;;;;;5082212;28;19969;-70
2022/11/06 04:45:13;;;;;;;;;;;;;;;;;;5085161;28;19932;-70
2022/11/06 04:47:38;;;;;;;;;;;;;;;;;;5079784;28;20496;-70
2022/11/06 04:50:04;;;;;;;;;;;;;;;;;;5076742;28;19939;-71
2022/11/06 04:52:30;;;;;;;;;;;;;;;;;;5077472;28;20007;-70
2022/11/06 04:54:57;;;;;;;;;;;;;;;;;;5079842;28;20019;-70
2022/11/06 04:57:22;;;;;;;;;;;;;;;;;;5085904;28;19924;-70
2022/11/06 04:59:48;;;;;;;;;;;;;;;;;;5076128;28;20018;-69
2022/11/06 05:02:13;;;;;;;;;;;;;;;;;;5078496;28;20307;-70
2022/11/06 05:04:38;;;;;;;;;;;;;;;;;;5078478;28;19938;-71
2022/11/06 05:07:03;;;;;;;;;;;;;;;;;;5076591;28;19924;-71
2022/11/06 05:09:29;;;;;;;;;;;;;;;;;;5080057;28;19915;-70
2022/11/06 05:11:54;;;;;;;;;;;;;;;;;;5077091;28;21945;-71
2022/11/06 05:14:20;;;;;;;;;;;;;;;;;;5076700;28;20450;-70
2022/11/06 05:16:45;;;;;;;;;;;;;;;;;;5084194;28;19931;-70
2022/11/06 05:19:10;;;;;;;;;;;;;;;;;;5080355;28;20459;-71
2022/11/06 05:24:20;;;;;;;;;;;;;;;;;;5080531;28;19946;-71
2022/11/06 05:26:45;;;;;;;;;;;;;;;;;;5083292;28;19928;-69
2022/11/06 05:29:11;;;;;;;;;;;;;;;;;;5079570;28;19939;-72
2022/11/06 05:31:36;;;;;;;;;;;;;;;;;;5077863;28;20004;-70
2022/11/06 05:34:02;;;;;;;;;;;;;;;;;;5082199;28;19977;-73
2022/11/06 05:36:27;;;;;;;;;;;;;;;;;;5077664;28;19987;-70
2022/11/06 05:38:52;;;;;;;;;;;;;;;;;;5078684;28;19935;-71
2022/11/06 05:41:17;;;;;;;;;;;;;;;;;;5076824;28;20508;-70
2022/11/06 05:43:43;;;;;;;;;;;;;;;;;;5079388;28;19928;-70
2022/11/06 05:46:08;;;;;;;;;;;;;;;;;;5077375;28;20350;-70
2022/11/06 05:48:33;;;;;;;;;;;;;;;;;;5079168;28;19928;-71
2022/11/06 05:50:59;;;;;;;;;;;;;;;;;;5077434;28;20284;-71
2022/11/06 05:53:25;;;;;;;;;;;;;;;;;;5079809;28;19924;-70
2022/11/06 05:55:50;;;;;;;;;;;;;;;;;;5080471;28;19943;-70
2022/11/06 05:58:15;;;;;;;;;;;;;;;;;;5079226;28;20429;-70
2022/11/06 06:00:41;;;;;;;;;;;;;;;;;;5094350;28;19928;-71
2022/11/06 06:03:06;;;;;;;;;;;;;;;;;;5080380;28;19967;-68
2022/11/06 06:05:31;;;;;;;;;;;;;;;;;;5084100;28;19990;-69
2022/11/06 06:07:56;;;;;;;;;;;;;;;;;;5079530;28;20355;-72
2022/11/06 06:10:22;;;;;;;;;;;;;;;;;;5080177;28;19924;-68
2022/11/06 06:12:50;;;;;;;;;;;;;;;;;;5080168;28;20007;-70
2022/11/06 06:15:16;;;;;;;;;;;;;;;;;;5077723;28;19924;-70
2022/11/06 06:17:42;;;;;;;;;;;;;;;;;;5095925;28;19939;-70
2022/11/06 06:20:07;;;;;;;;;;;;;;;;;;5077315;28;20133;-70
2022/11/06 06:22:38;;;;;;;;;;;;;;;;;;5076944;28;20343;-68
2022/11/06 06:25:04;;;;;;;;;;;;;;;;;;5077053;28;20324;-71
2022/11/06 06:27:30;;;;;;;;;;;;;;;;;;5078965;28;19929;-71
2022/11/06 06:29:55;;;;;;;;;;;;;;;;;;5073943;28;20018;-71
2022/11/06 06:32:20;;;;;;;;;;;;;;;;;;5069769;28;19921;-69
2022/11/06 06:34:45;;;;;;;;;;;;;;;;;;5067140;28;19928;-68
2022/11/06 06:37:11;;;;;;;;;;;;;;;;;;5080191;28;19924;-72
2022/11/06 06:39:36;;;;;;;;;;;;;;;;;;5078397;28;20495;-70
2022/11/06 06:42:01;;;;;;;;;;;;;;;;;;5074685;28;19928;-70
2022/11/06 06:44:27;;;;;;;;;;;;;;;;;;5078200;28;19933;-69
2022/11/06 06:46:52;;;;;;;;;;;;;;;;;;5077912;28;19947;-72
2022/11/06 06:49:17;;;;;;;;;;;;;;;;;;5083455;28;20312;-71
2022/11/06 06:51:43;;;;;;;;;;;;;;;;;;5083047;28;19928;-70
2022/11/06 06:54:08;;;;;;;;;;;;;;;;;;5082255;28;20288;-69
2022/11/06 06:56:33;;;;;;;;;;;;;;;;;;5082559;28;19928;-70
2022/11/06 06:58:59;;;;;;;;;;;;;;;;;;5077127;28;20342;-69
2022/11/06 07:01:24;;;;;;;;;;;;;;;;;;5084408;28;20414;-70
2022/11/06 07:03:49;;;;;;;;;;;;;;;;;;5081320;28;20026;-69
2022/11/06 07:06:16;;;;;;;;;;;;;;;;;;5083812;28;19924;-72
2022/11/06 07:08:42;;;;;;;;;;;;;;;;;;5076769;28;19924;-69
2022/11/06 07:11:07;;;;;;;;;;;;;;;;;;5075138;28;20420;-72
2022/11/06 07:13:33;;;;;;;;;;;;;;;;;;5079913;28;19924;-70
2022/11/06 07:15:58;;;;;;;;;;;;;;;;;;5080618;28;19931;-71
2022/11/06 07:18:23;;;;;;;;;;;;;;;;;;5078229;28;19924;-70
2022/11/06 07:20:49;;;;;;;;;;;;;;;;;;5079448;28;19963;-69
2022/11/06 07:23:14;;;;;;;;;;;;;;;;;;5080193;28;19936;-70
2022/11/06 07:25:39;;;;;;;;;;;;;;;;;;5079220;28;20288;-72
2022/11/06 07:28:06;;;;;;;;;;;;;;;;;;5075336;28;19979;-69
2022/11/06 07:30:32;;;;;;;;;;;;;;;;;;5079213;28;19928;-71
2022/11/06 07:33:01;;;;;;;;;;;;;;;;;;5081663;28;20398;-69
2022/11/06 07:35:26;;;;;;;;;;;;;;;;;;5074952;28;19989;-72
2022/11/06 07:37:51;;;;;;;;;;;;;;;;;;5079423;28;19926;-69
2022/11/06 07:40:17;;;;;;;;;;;;;;;;;;5076568;28;20397;-70
2022/11/06 07:42:42;;;;;;;;;;;;;;;;;;5083690;28;19978;-69
2022/11/06 07:45:08;;;;;;;;;;;;;;;;;;5093443;28;19925;-72
2022/11/06 07:47:34;;;;;;;;;;;;;;;;;;5081498;28;19935;-71
2022/11/06 07:50:11;;;;;;;;;;;;;;;;;;5076122;28;19981;-70
2022/11/06 07:52:42;;;;;;;;;;;;;;;;;;5070298;28;19923;-70
2022/11/06 07:55:07;;;;;;;;;;;;;;;;;;5076067;27;20584;-69
2022/11/06 07:57:42;;;;;;;;;;;;;;;;;;5096129;28;19958;-71
2022/11/06 08:00:08;;;;;;;;;;;;;;;;;;5065454;28;19935;-69
2022/11/06 08:02:37;;;;;;;;;;;;;;;;;;5063112;28;19925;-70
2022/11/06 08:05:02;;;;;;;;;;;;;;;;;;5067919;28;19950;-70
2022/11/06 08:07:31;;;;;;;;;;;;;;;;;;5088986;28;19996;-72
2022/11/06 08:09:57;;;;;;;;;;;;;;;;;;5079825;28;19926;-70
2022/11/06 08:12:22;;;;;;;;;;;;;;;;;;5079138;28;19958;-71
2022/11/06 08:14:50;;;;;;;;;;;;;;;;;;5077416;28;19976;-69
2022/11/06 08:17:16;;;;;;;;;;;;;;;;;;5075194;28;19935;-70
2022/11/06 08:19:47;;;;;;;;;;;;;;;;;;5059429;28;19928;-70
2022/11/06 08:22:13;;;;;;;;;;;;;;;;;;5077279;28;20305;-70
2022/11/06 08:24:44;;;;;;;;;;;;;;;;;;5094858;28;20019;-70
2022/11/06 08:27:09;;;;;;;;;;;;;;;;;;5081753;28;19973;-71
2022/11/06 08:29:35;;;;;;;;;;;;;;;;;;5078117;28;19925;-69
2022/11/06 08:32:00;;;;;;;;;;;;;;;;;;5078880;28;19932;-70
2022/11/06 08:34:25;;;;;;;;;;;;;;;;;;5082924;28;19959;-70
2022/11/06 08:36:51;;;;;;;;;;;;;;;;;;5080491;28;19937;-70
2022/11/06 08:39:16;;;;;;;;;;;;;;;;;;5078085;28;19920;-69
2022/11/06 08:41:42;;;;;;;;;;;;;;;;;;5078248;28;19932;-68
2022/11/06 08:44:07;;;;;;;;;;;;;;;;;;5079037;28;19925;-70
2022/11/06 08:46:32;;;;;;;;;;;;;;;;;;5078441;28;19928;-72
2022/11/06 08:48:58;;;;;;;;;;;;;;;;;;5077517;28;19957;-72
2022/11/06 08:51:23;;;;;;;;;;;;;;;;;;5077004;28;19930;-72
2022/11/06 08:53:48;;;;;;;;;;;;;;;;;;5075250;28;19949;-71
2022/11/06 08:56:14;;;;;;;;;;;;;;;;;;5081243;28;20042;-70
2022/11/06 08:58:39;;;;;;;;;;;;;;;;;;5077980;28;20020;-69
2022/11/06 09:01:04;;;;;;;;;;;;;;;;;;5081132;28;19924;-69
2022/11/06 09:03:30;;;;;;;;;;;;;;;;;;5082805;28;21267;-69
2022/11/06 09:05:55;;;;;;;;;;;;;;;;;;5075567;28;19936;-71
2022/11/06 09:08:20;;;;;;;;;;;;;;;;;;5076023;28;19943;-71
2022/11/06 09:10:45;;;;;;;;;;;;;;;;;;5078121;28;20627;-69
2022/11/06 09:13:11;;;;;;;;;;;;;;;;;;5073895;28;19936;-72
2022/11/06 09:15:37;;;;;;;;;;;;;;;;;;5077082;28;19920;-69
2022/11/06 09:18:02;;;;;;;;;;;;;;;;;;5076772;28;19928;-70
2022/11/06 09:20:27;;;;;;;;;;;;;;;;;;5073961;28;20487;-70
2022/11/06 09:22:53;;;;;;;;;;;;;;;;;;5075098;28;19985;-71
2022/11/06 09:25:19;;;;;;;;;;;;;;;;;;5072699;28;19924;-70
2022/11/06 09:27:49;;;;;;;;;;;;;;;;;;5074490;28;19964;-73
2022/11/06 09:30:16;;;;;;;;;;;;;;;;;;5072209;28;20541;-69
2022/11/06 09:32:45;;;;;;;;;;;;;;;;;;5078835;28;20018;-70
2022/11/06 09:35:12;;;;;;;;;;;;;;;;;;5075133;28;19995;-69
2022/11/06 09:37:38;;;;;;;;;;;;;;;;;;5072746;28;20382;-70
2022/11/06 09:40:03;;;;;;;;;;;;;;;;;;5074608;28;19923;-73
2022/11/06 09:42:44;;;;;;;;;;;;;;;;;;5075698;28;19921;-70
2022/11/06 09:45:12;;;;;;;;;;;;;;;;;;5070586;28;19951;-70
2022/11/06 09:47:40;;;;;;;;;;;;;;;;;;5076970;28;19928;-70
2022/11/06 09:50:10;;;;;;;;;;;;;;;;;;5078808;28;20372;-72
2022/11/06 09:52:45;;;;;;;;;;;;;;;;;;5077321;28;19924;-71
2022/11/06 09:55:19;;;;;;;;;;;;;;;;;;5072707;28;19939;-71
2022/11/06 09:57:44;;;;;;;;;;;;;;;;;;5075538;28;19940;-69
2022/11/06 10:00:11;;;;;;;;;;;;;;;;;;5077485;28;20432;-72
2022/11/06 10:02:39;;;;;;;;;;;;;;;;;;5079216;28;19985;-70
2022/11/06 10:05:25;;;;;;;;;;;;;;;;;;5079118;28;19932;-72
2022/11/06 10:07:52;;;;;;;;;;;;;;;;;;5079707;28;20411;-72
2022/11/06 10:10:19;;;;;;;;;;;;;;;;;;5076933;28;19932;-70
2022/11/06 10:13:10;;;;;;;;;;;;;;;;;;5078789;28;19924;-70
2022/11/06 10:15:42;;;;;;;;;;;;;;;;;;5078277;28;19925;-69
2022/11/06 10:18:10;;;;;;;;;;;;;;;;;;5073549;28;20388;-70
2022/11/06 10:20:50;;;;;;;;;;;;;;;;;;5076037;28;20318;-70
2022/11/06 10:23:16;;;;;;;;;;;;;;;;;;5086369;28;20500;-70
2022/11/06 10:25:43;;;;;;;;;;;;;;;;;;5076004;28;19934;-71
2022/11/06 10:28:08;;;;;;;;;;;;;;;;;;5081097;28;20534;-71
2022/11/06 10:30:44;;;;;;;;;;;;;;;;;;5072419;28;19928;-70
2022/11/06 10:33:27;;;;;;;;;;;;;;;;;;5079905;28;20022;-68
2022/11/06 10:36:08;;;;;;;;;;;;;;;;;;5068017;28;19936;-72
2022/11/06 10:38:34;;;;;;;;;;;;;;;;;;5067380;28;19960;-70
2022/11/06 10:41:00;;;;;;;;;;;;;;;;;;5069602;28;20796;-68
2022/11/06 10:43:44;;;;;;;;;;;;;;;;;;5074898;28;19925;-70
2022/11/06 10:46:10;;;;;;;;;;;;;;;;;;5080442;28;19934;-70
2022/11/06 10:48:38;;;;;;;;;;;;;;;;;;5076548;28;20321;-70
2022/11/06 10:51:10;;;;;;;;;;;;;;;;;;5074402;28;19928;-70
2022/11/06 10:53:45;;;;;;;;;;;;;;;;;;5076850;28;19939;-71
2022/11/06 10:56:13;;;;;;;;;;;;;;;;;;5071903;28;19978;-71
2022/11/06 10:58:39;;;;;;;;;;;;;;;;;;5071270;28;20421;-70
2022/11/06 11:01:05;;;;;;;;;;;;;;;;;;5071426;28;19928;-69
2022/11/06 11:03:32;;;;;;;;;;;;;;;;;;5073658;28;21314;-70
2022/11/06 11:05:58;;;;;;;;;;;;;;;;;;5064430;28;19928;-71
2022/11/06 11:08:29;;;;;;;;;;;;;;;;;;5066513;28;19939;-70
2022/11/06 11:11:00;;;;;;;;;;;;;;;;;;5074706;28;19928;-69
2022/11/06 11:13:25;;;;;;;;;;;;;;;;;;5070359;28;19928;-69
2022/11/06 11:15:51;;;;;;;;;;;;;;;;;;5066430;28;20617;-70
2022/11/06 11:18:29;;;;;;;;;;;;;;;;;;5068621;28;20052;-70
2022/11/06 11:21:03;;;;;;;;;;;;;;;;;;5071605;28;19928;-69
2022/11/06 11:23:29;;;;;;;;;;;;;;;;;;5070695;28;19935;-69
2022/11/06 11:25:55;;;;;;;;;;;;;;;;;;5069016;28;19932;-69
2022/11/06 11:28:23;;;;;;;;;;;;;;;;;;5073272;28;19928;-70
2022/11/06 11:30:52;;;;;;;;;;;;;;;;;;5067895;28;19924;-69
2022/11/06 11:33:19;;;;;;;;;;;;;;;;;;5065882;28;19939;-70
2022/11/06 11:35:47;;;;;;;;;;;;;;;;;;5072427;28;19932;-69
2022/11/06 11:38:13;;;;;;;;;;;;;;;;;;5069167;28;20630;-69
2022/11/06 11:40:39;;;;;;;;;;;;;;;;;;5074700;28;20214;-68
2022/11/06 11:43:21;;;;;;;;;;;;;;;;;;5073682;28;20001;-71
2022/11/06 11:46:00;;;;;;;;;;;;;;;;;;5076471;28;19926;-68
2022/11/06 11:48:25;;;;;;;;;;;;;;;;;;5080020;28;19930;-69
2022/11/06 11:50:50;;;;;;;;;;;;;;;;;;5074695;28;19932;-68
2022/11/06 11:53:20;;;;;;;;;;;;;;;;;;5077020;28;19977;-70
2022/11/06 11:55:47;;;;;;;;;;;;;;;;;;5081924;28;19939;-69
2022/11/06 11:58:23;;;;;;;;;;;;;;;;;;5078263;28;19930;-69
2022/11/06 12:00:57;;;;;;;;;;;;;;;;;;5073800;28;19927;-71
2022/11/06 12:03:25;;;;;;;;;;;;;;;;;;5080997;28;19938;-70
2022/11/06 12:05:51;;;;;;;;;;;;;;;;;;5078367;28;20348;-69
2022/11/06 12:08:23;;;;;;;;;;;;;;;;;;5091440;28;19935;-69
2022/11/06 12:10:49;;;;;;;;;;;;;;;;;;5076695;28;19932;-69
2022/11/06 12:13:22;;;;;;;;;;;;;;;;;;5075046;28;19939;-68
2022/11/06 12:15:54;;;;;;;;;;;;;;;;;;5078329;28;19973;-69
2022/11/06 12:18:25;;;;;;;;;;;;;;;;;;5077854;28;19926;-72
2022/11/06 12:21:20;;;;;;;;;;;;;;;;;;5077679;28;19928;-68
2022/11/06 12:23:58;;;;;;;;;;;;;;;;;;5051758;28;19929;-68
2022/11/06 12:26:27;;;;;;;;;;;;;;;;;;5072854;28;20007;-70
2022/11/06 12:28:55;;;;;;;;;;;;;;;;;;5075853;28;20318;-69
2022/11/06 12:31:37;;;;;;;;;;;;;;;;;;5074883;28;19978;-69
2022/11/06 12:34:06;;;;;;;;;;;;;;;;;;5076990;28;19928;-69
2022/11/06 12:36:38;;;;;;;;;;;;;;;;;;5073741;28;19928;-70
2022/11/06 12:39:09;;;;;;;;;;;;;;;;;;5076165;28;20773;-70
2022/11/06 12:41:37;;;;;;;;;;;;;;;;;;5076245;28;19928;-69
2022/11/06 12:44:08;;;;;;;;;;;;;;;;;;5075400;28;19928;-72
2022/11/06 12:46:36;;;;;;;;;;;;;;;;;;5076329;28;19946;-70
2022/11/06 12:49:20;;;;;;;;;;;;;;;;;;5078321;28;19928;-69
2022/11/06 12:52:04;;;;;;;;;;;;;;;;;;5074491;28;20632;-69
2022/11/06 12:54:47;;;;;;;;;;;;;;;;;;5056826;28;19932;-70
2022/11/06 12:57:25;;;;;;;;;;;;;;;;;;5076077;28;19924;-69
2022/11/06 13:00:09;;;;;;;;;;;;;;;;;;5075505;28;20331;-69
2022/11/06 13:02:38;;;;;;;;;;;;;;;;;;5074792;28;20023;-68
2022/11/06 13:05:22;;;;;;;;;;;;;;;;;;5073281;28;20418;-69
2022/11/06 13:07:47;;;;;;;;;;;;;;;;;;5071274;28;20010;-68
2022/11/06 13:10:24;;;;;;;;;;;;;;;;;;5077127;28;20011;-70
2022/11/06 13:12:55;;;;;;;;;;;;;;;;;;5077532;28;19935;-69
2022/11/06 13:15:21;;;;;;;;;;;;;;;;;;5079869;28;20050;-69
2022/11/06 13:18:04;;;;;;;;;;;;;;;;;;5074215;28;20462;-69
2022/11/06 13:20:30;;;;;;;;;;;;;;;;;;5078162;28;19939;-69
2022/11/06 13:23:06;;;;;;;;;;;;;;;;;;5078946;28;19924;-70
2022/11/06 13:25:37;;;;;;;;;;;;;;;;;;5078224;28;19927;-69
2022/11/06 13:28:19;;;;;;;;;;;;;;;;;;5080903;28;19943;-70
2022/11/06 13:30:45;;;;;;;;;;;;;;;;;;5078835;28;20379;-68
2022/11/06 13:33:23;;;;;;;;;;;;;;;;;;5072187;28;19951;-70
2022/11/06 13:35:49;;;;;;;;;;;;;;;;;;5074872;28;20312;-71
2022/11/06 13:38:16;;;;;;;;;;;;;;;;;;5079882;28;19932;-69
2022/11/06 13:40:46;;;;;;;;;;;;;;;;;;5080215;28;19928;-70
2022/11/06 13:43:20;;;;;;;;;;;;;;;;;;5083084;28;19928;-72
2022/11/06 13:46:05;;;;;;;;;;;;;;;;;;5077036;28;19928;-69
2022/11/06 13:48:36;;;;;;;;;;;;;;;;;;5046205;28;19936;-70
2022/11/06 13:51:01;;;;;;;;;;;;;;;;;;5071460;28;19938;-70
2022/11/06 13:53:38;;;;;;;;;;;;;;;;;;5075209;28;20010;-70
2022/11/06 13:56:10;;;;;;;;;;;;;;;;;;5078456;28;20398;-69
2022/11/06 13:58:49;;;;;;;;;;;;;;;;;;5072449;28;19924;-69
2022/11/06 14:01:21;;;;;;;;;;;;;;;;;;5074422;28;19932;-70
2022/11/06 14:03:55;;;;;;;;;;;;;;;;;;5078387;27;19920;-70
2022/11/06 14:06:23;;;;;;;;;;;;;;;;;;5074742;28;20128;-70
2022/11/06 14:08:53;;;;;;;;;;;;;;;;;;5075114;28;19981;-69
2022/11/06 14:11:25;;;;;;;;;;;;;;;;;;5074896;28;19934;-69
2022/11/06 14:13:55;;;;;;;;;;;;;;;;;;5074595;28;20011;-71
2022/11/06 14:16:20;;;;;;;;;;;;;;;;;;5074351;28;19928;-70
2022/11/06 14:19:15;;;;;;;;;;;;;;;;;;5070130;28;20595;-69
2022/11/06 14:21:43;;;;;;;;;;;;;;;;;;5069527;28;19935;-69
2022/11/06 14:24:27;;;;;;;;;;;;;;;;;;5071061;28;19995;-69
2022/11/06 14:26:52;;;;;;;;;;;;;;;;;;5073781;28;19928;-69
2022/11/06 14:29:27;;;;;;;;;;;;;;;;;;5075871;28;19932;-70
2022/11/06 14:32:01;;;;;;;;;;;;;;;;;;5076347;28;19928;-68
2022/11/06 14:34:31;;;;;;;;;;;;;;;;;;5076878;28;19935;-69
2022/11/06 14:36:56;;;;;;;;;;;;;;;;;;5074458;28;20339;-70
2022/11/06 14:39:40;;;;;;;;;;;;;;;;;;5076738;28;19924;-69
2022/11/06 14:42:05;;;;;;;;;;;;;;;;;;5070921;28;19928;-75
2022/11/06 14:44:41;;;;;;;;;;;;;;;;;;5069434;28;19935;-67
2022/11/06 14:47:17;;;;;;;;;;;;;;;;;;5076471;28;19928;-68
2022/11/06 14:49:47;;;;;;;;;;;;;;;;;;5074254;28;19932;-69
2022/11/06 14:52:13;;;;;;;;;;;;;;;;;;5075425;28;20326;-67
2022/11/06 14:54:40;;;;;;;;;;;;;;;;;;5077568;28;20279;-69
2022/11/06 14:57:07;;;;;;;;;;;;;;;;;;5081918;28;20345;-69
2022/11/06 14:59:37;;;;;;;;;;;;;;;;;;5077966;28;19931;-69
2022/11/06 15:02:11;;;;;;;;;;;;;;;;;;5077777;28;19925;-69
2022/11/06 15:04:41;;;;;;;;;;;;;;;;;;5077761;28;20015;-69
2022/11/06 15:07:08;;;;;;;;;;;;;;;;;;5078694;28;19932;-70
2022/11/06 15:09:36;;;;;;;;;;;;;;;;;;5075960;28;20145;-70
2022/11/06 15:12:02;;;;;;;;;;;;;;;;;;5075790;28;20462;-69
2022/11/06 15:14:27;;;;;;;;;;;;;;;;;;5073300;28;19973;-69
2022/11/06 15:17:01;;;;;;;;;;;;;;;;;;5077030;28;20007;-71
2022/11/06 15:19:30;;;;;;;;;;;;;;;;;;5080882;28;19931;-70
2022/11/06 15:22:04;;;;;;;;;;;;;;;;;;5077642;28;20323;-71
2022/11/06 15:24:34;;;;;;;;;;;;;;;;;;5079498;28;19928;-69
2022/11/06 15:27:06;;;;;;;;;;;;;;;;;;5077987;28;19998;-71
2022/11/06 15:29:33;;;;;;;;;;;;;;;;;;5074682;28;19928;-69
2022/11/06 15:32:03;;;;;;;;;;;;;;;;;;5071915;28;19939;-70
2022/11/06 15:34:30;;;;;;;;;;;;;;;;;;5080779;28;19924;-72
2022/11/06 15:37:01;;;;;;;;;;;;;;;;;;5079839;28;20391;-70
2022/11/06 15:39:29;;;;;;;;;;;;;;;;;;5078343;28;20437;-70
2022/11/06 15:41:55;;;;;;;;;;;;;;;;;;5078779;28;19932;-69
2022/11/06 15:44:22;;;;;;;;;;;;;;;;;;5076260;28;19931;-71
2022/11/06 15:46:54;;;;;;;;;;;;;;;;;;5083935;28;19977;-69
2022/11/06 15:49:20;;;;;;;;;;;;;;;;;;5078803;28;20145;-69
2022/11/06 15:51:50;;;;;;;;;;;;;;;;;;5079519;28;19927;-69
2022/11/06 15:54:28;;;;;;;;;;;;;;;;;;5078283;28;20456;-69
2022/11/06 15:56:54;;;;;;;;;;;;;;;;;;5079231;28;19923;-69
2022/11/06 15:59:19;;;;;;;;;;;;;;;;;;5077694;28;19925;-71
2022/11/06 16:01:48;;;;;;;;;;;;;;;;;;5076102;28;19977;-71
2022/11/06 16:04:23;;;;;;;;;;;;;;;;;;5076213;28;19940;-70
2022/11/06 16:06:50;;;;;;;;;;;;;;;;;;5074093;28;20492;-71
2022/11/06 16:09:18;;;;;;;;;;;;;;;;;;5078807;28;19924;-69
2022/11/06 16:11:44;;;;;;;;;;;;;;;;;;5075711;28;19997;-71
2022/11/06 16:14:11;;;;;;;;;;;;;;;;;;5077467;28;19935;-70
2022/11/06 16:16:39;;;;;;;;;;;;;;;;;;5081674;28;19924;-70
2022/11/06 16:19:14;;;;;;;;;;;;;;;;;;5078965;28;19981;-70
2022/11/06 16:21:40;;;;;;;;;;;;;;;;;;5078917;28;19920;-72
2022/11/06 16:24:14;;;;;;;;;;;;;;;;;;5076314;28;20364;-70
2022/11/06 16:26:45;;;;;;;;;;;;;;;;;;5079573;28;20405;-69
2022/11/06 16:29:15;;;;;;;;;;;;;;;;;;5078122;28;19928;-70
2022/11/06 16:31:40;;;;;;;;;;;;;;;;;;5072897;28;19975;-71
2022/11/06 16:34:17;;;;;;;;;;;;;;;;;;5074337;28;19963;-68
2022/11/06 16:36:51;;;;;;;;;;;;;;;;;;5075547;28;19928;-69
2022/11/06 16:39:16;;;;;;;;;;;;;;;;;;5073921;28;19935;-69
2022/11/06 16:42:02;;;;;;;;;;;;;;;;;;5070307;28;20031;-69
2022/11/06 16:44:33;;;;;;;;;;;;;;;;;;5074890;28;20706;-69
2022/11/06 16:47:10;;;;;;;;;;;;;;;;;;5074283;28;21193;-69
2022/11/06 16:49:38;;;;;;;;;;;;;;;;;;5078532;28;20030;-69
2022/11/06 16:52:15;;;;;;;;;;;;;;;;;;5074858;28;20044;-69
2022/11/06 16:54:47;;;;;;;;;;;;;;;;;;5075729;28;19921;-69
2022/11/06 16:57:15;;;;;;;;;;;;;;;;;;5075730;28;19935;-70
2022/11/06 16:59:41;;;;;;;;;;;;;;;;;;5080048;28;19928;-70
2022/11/06 17:02:16;;;;;;;;;;;;;;;;;;5076123;28;19924;-70
2022/11/06 17:04:41;;;;;;;;;;;;;;;;;;5079803;28;19935;-69
2022/11/06 17:07:16;;;;;;;;;;;;;;;;;;5072975;28;19946;-69
2022/11/06 17:09:41;;;;;;;;;;;;;;;;;;5070539;28;19950;-70
2022/11/06 17:12:08;;;;;;;;;;;;;;;;;;5077910;28;19924;-69
2022/11/06 17:14:34;;;;;;;;;;;;;;;;;;5070161;28;19933;-70